sensor_id;sensor_type;location;lat;lon;timestamp;temperature;humidity
22202;DHT22;11266;51.522;6.302;2023-05-07T00:00:06;15.20;99.90
22202;DHT22;11266;51.522;6.302;2023-05-07T00:00:55;15.20;99.90
22202;DHT22;11266;51.522;6.302;2023-05-07T00:01:40;15.30;99.90
22202;DHT22;11266;51.522;6.302;2023-05-07T00:02:26;15.30;99.90
22202;DHT22;11266;51.522;6.302;2023-05-07T00:03:12;15.30;99.90
22202;DHT22;11266;51.522;6.302;2023-05-07T00:03:59;15.30;99.90
22202;DHT22;11266;51.522;6.302;2023-05-07T00:04:45;15.30;99.90
22202;DHT22;11266;51.522;6.302;2023-05-07T00:05:30;15.30;99.90
22202;DHT22;11266;51.522;6.302;2023-05-07T00:06:17;15.30;99.90
22202;DHT22;11266;51.522;6.302;2023-05-07T00:07:03;15.30;99.90
22202;DHT22;11266;51.522;6.302;2023-05-07T00:07:49;15.30;99.90
22202;DHT22;11266;51.522;6.302;2023-05-07T00:08:35;15.30;99.90
22202;DHT22;11266;51.522;6.302;2023-05-07T00:09:21;15.30;99.90
22202;DHT22;11266;51.522;6.302;2023-05-07T00:10:07;15.30;99.90
22202;DHT22;11266;51.522;6.302;2023-05-07T00:10:53;15.30;99.90
22202;DHT22;11266;51.522;6.302;2023-05-07T00:11:40;15.30;99.90
22202;DHT22;11266;51.522;6.302;2023-05-07T00:12:26;15.30;99.90
22202;DHT22;11266;51.522;6.302;2023-05-07T00:13:12;15.30;99.90
22202;DHT22;11266;51.522;6.302;2023-05-07T00:14:00;15.30;99.90
22202;DHT22;11266;51.522;6.302;2023-05-07T00:14:46;15.30;99.90
22202;DHT22;11266;51.522;6.302;2023-05-07T00:15:32;15.30;99.90
22202;DHT22;11266;51.522;6.302;2023-05-07T00:16:18;15.30;99.90
22202;DHT22;11266;51.522;6.302;2023-05-07T00:17:04;15.30;99.90
22202;DHT22;11266;51.522;6.302;2023-05-07T00:17:50;15.30;99.90
22202;DHT22;11266;51.522;6.302;2023-05-07T00:18:36;15.30;99.90
22202;DHT22;11266;51.522;6.302;2023-05-07T00:19:22;15.30;99.90
22202;DHT22;11266;51.522;6.302;2023-05-07T00:20:08;15.30;99.90
22202;DHT22;11266;51.522;6.302;2023-05-07T00:20:54;15.30;99.90
22202;DHT22;11266;51.522;6.302;2023-05-07T00:21:40;15.30;99.90
22202;DHT22;11266;51.522;6.302;2023-05-07T00:22:26;15.30;99.90
22202;DHT22;11266;51.522;6.302;2023-05-07T00:23:14;15.30;99.90
22202;DHT22;11266;51.522;6.302;2023-05-07T00:24:00;15.30;99.90
22202;DHT22;11266;51.522;6.302;2023-05-07T00:24:46;15.30;99.90
22202;DHT22;11266;51.522;6.302;2023-05-07T00:25:32;15.30;99.90
22202;DHT22;11266;51.522;6.302;2023-05-07T00:26:18;15.30;99.90
22202;DHT22;11266;51.522;6.302;2023-05-07T00:27:04;15.20;99.90
22202;DHT22;11266;51.522;6.302;2023-05-07T00:27:49;15.20;99.90
22202;DHT22;11266;51.522;6.302;2023-05-07T00:28:35;15.20;99.90
22202;DHT22;11266;51.522;6.302;2023-05-07T00:29:21;15.20;99.90
22202;DHT22;11266;51.522;6.302;2023-05-07T00:30:07;15.20;99.90
22202;DHT22;11266;51.522;6.302;2023-05-07T00:30:53;15.20;99.90
22202;DHT22;11266;51.522;6.302;2023-05-07T00:31:39;15.20;99.90
22202;DHT22;11266;51.522;6.302;2023-05-07T00:32:25;15.20;99.90
22202;DHT22;11266;51.522;6.302;2023-05-07T00:33:11;15.20;99.90
22202;DHT22;11266;51.522;6.302;2023-05-07T00:33:57;15.20;99.90
22202;DHT22;11266;51.522;6.302;2023-05-07T00:34:43;15.20;99.90
22202;DHT22;11266;51.522;6.302;2023-05-07T00:35:29;15.20;99.90
22202;DHT22;11266;51.522;6.302;2023-05-07T00:36:15;15.20;99.90
22202;DHT22;11266;51.522;6.302;2023-05-07T00:37:01;15.20;99.90
22202;DHT22;11266;51.522;6.302;2023-05-07T00:37:47;15.20;99.90
22202;DHT22;11266;51.522;6.302;2023-05-07T00:38:33;15.20;99.90
22202;DHT22;11266;51.522;6.302;2023-05-07T00:39:19;15.20;99.90
22202;DHT22;11266;51.522;6.302;2023-05-07T00:40:06;15.20;99.90
22202;DHT22;11266;51.522;6.302;2023-05-07T00:40:53;15.20;99.90
22202;DHT22;11266;51.522;6.302;2023-05-07T00:41:39;15.20;99.90
22202;DHT22;11266;51.522;6.302;2023-05-07T00:42:24;15.20;99.90
22202;DHT22;11266;51.522;6.302;2023-05-07T00:43:10;15.20;99.90
22202;DHT22;11266;51.522;6.302;2023-05-07T00:43:56;15.20;99.90
22202;DHT22;11266;51.522;6.302;2023-05-07T00:44:42;15.20;99.90
22202;DHT22;11266;51.522;6.302;2023-05-07T00:45:32;15.20;99.90
22202;DHT22;11266;51.522;6.302;2023-05-07T00:46:20;15.20;99.90
22202;DHT22;11266;51.522;6.302;2023-05-07T00:47:06;15.20;99.90
22202;DHT22;11266;51.522;6.302;2023-05-07T00:48:02;15.10;99.90
22202;DHT22;11266;51.522;6.302;2023-05-07T00:48:48;15.20;99.90
22202;DHT22;11266;51.522;6.302;2023-05-07T00:49:40;15.10;99.90
22202;DHT22;11266;51.522;6.302;2023-05-07T00:50:27;15.20;99.90
22202;DHT22;11266;51.522;6.302;2023-05-07T00:51:14;15.20;99.90
22202;DHT22;11266;51.522;6.302;2023-05-07T00:52:00;15.20;99.90
22202;DHT22;11266;51.522;6.302;2023-05-07T00:52:46;15.20;99.90
22202;DHT22;11266;51.522;6.302;2023-05-07T00:53:32;15.20;99.90
22202;DHT22;11266;51.522;6.302;2023-05-07T00:54:18;15.20;99.90
22202;DHT22;11266;51.522;6.302;2023-05-07T00:55:06;15.20;99.90
22202;DHT22;11266;51.522;6.302;2023-05-07T00:55:52;15.20;99.90
22202;DHT22;11266;51.522;6.302;2023-05-07T00:56:38;15.20;99.90
22202;DHT22;11266;51.522;6.302;2023-05-07T00:57:25;15.20;99.90
22202;DHT22;11266;51.522;6.302;2023-05-07T00:58:11;15.20;99.90
22202;DHT22;11266;51.522;6.302;2023-05-07T00:58:57;15.20;99.90
22202;DHT22;11266;51.522;6.302;2023-05-07T00:59:42;15.20;99.90
22202;DHT22;11266;51.522;6.302;2023-05-07T01:00:28;15.20;99.90
22202;DHT22;11266;51.522;6.302;2023-05-07T01:01:14;15.20;99.90
22202;DHT22;11266;51.522;6.302;2023-05-07T01:02:03;15.20;99.90
22202;DHT22;11266;51.522;6.302;2023-05-07T01:02:49;15.20;99.90
22202;DHT22;11266;51.522;6.302;2023-05-07T01:03:35;15.20;99.90
22202;DHT22;11266;51.522;6.302;2023-05-07T01:04:20;15.20;99.90
22202;DHT22;11266;51.522;6.302;2023-05-07T01:05:09;15.20;99.90
22202;DHT22;11266;51.522;6.302;2023-05-07T01:05:57;15.20;99.90
22202;DHT22;11266;51.522;6.302;2023-05-07T01:06:45;15.10;99.90
22202;DHT22;11266;51.522;6.302;2023-05-07T01:07:32;15.10;99.90
22202;DHT22;11266;51.522;6.302;2023-05-07T01:08:18;15.10;99.90
22202;DHT22;11266;51.522;6.302;2023-05-07T01:09:04;15.10;99.90
22202;DHT22;11266;51.522;6.302;2023-05-07T01:09:50;15.10;99.90
22202;DHT22;11266;51.522;6.302;2023-05-07T01:10:36;15.10;99.90
22202;DHT22;11266;51.522;6.302;2023-05-07T01:11:23;15.10;99.90
22202;DHT22;11266;51.522;6.302;2023-05-07T01:12:09;15.10;99.90
22202;DHT22;11266;51.522;6.302;2023-05-07T01:12:57;15.10;99.90
22202;DHT22;11266;51.522;6.302;2023-05-07T01:13:44;15.10;99.90
22202;DHT22;11266;51.522;6.302;2023-05-07T01:14:30;15.10;99.90
22202;DHT22;11266;51.522;6.302;2023-05-07T01:15:18;15.10;99.90
22202;DHT22;11266;51.522;6.302;2023-05-07T01:16:05;15.10;99.90
22202;DHT22;11266;51.522;6.302;2023-05-07T01:16:54;15.10;99.90
22202;DHT22;11266;51.522;6.302;2023-05-07T01:17:41;15.10;99.90
22202;DHT22;11266;51.522;6.302;2023-05-07T01:18:27;15.10;99.90
22202;DHT22;11266;51.522;6.302;2023-05-07T01:19:18;15.10;99.90
22202;DHT22;11266;51.522;6.302;2023-05-07T01:20:05;15.10;99.90
22202;DHT22;11266;51.522;6.302;2023-05-07T01:20:52;15.10;99.90
22202;DHT22;11266;51.522;6.302;2023-05-07T01:21:46;15.10;99.90
22202;DHT22;11266;51.522;6.302;2023-05-07T01:22:39;15.10;99.90
22202;DHT22;11266;51.522;6.302;2023-05-07T01:23:29;15.10;99.90
22202;DHT22;11266;51.522;6.302;2023-05-07T01:24:15;15.10;99.90
22202;DHT22;11266;51.522;6.302;2023-05-07T01:25:02;15.10;99.90
22202;DHT22;11266;51.522;6.302;2023-05-07T01:25:52;15.10;99.90
22202;DHT22;11266;51.522;6.302;2023-05-07T01:26:39;15.10;99.90
22202;DHT22;11266;51.522;6.302;2023-05-07T01:27:25;15.10;99.90
22202;DHT22;11266;51.522;6.302;2023-05-07T01:28:11;15.10;99.90
22202;DHT22;11266;51.522;6.302;2023-05-07T01:28:57;15.10;99.90
22202;DHT22;11266;51.522;6.302;2023-05-07T01:29:43;15.10;99.90
22202;DHT22;11266;51.522;6.302;2023-05-07T01:30:29;15.10;99.90
22202;DHT22;11266;51.522;6.302;2023-05-07T01:31:17;15.10;99.90
22202;DHT22;11266;51.522;6.302;2023-05-07T01:32:03;15.10;99.90
22202;DHT22;11266;51.522;6.302;2023-05-07T01:33:11;15.10;99.90
22202;DHT22;11266;51.522;6.302;2023-05-07T01:33:59;15.10;99.90
22202;DHT22;11266;51.522;6.302;2023-05-07T01:34:48;15.10;99.90
22202;DHT22;11266;51.522;6.302;2023-05-07T01:35:38;15.10;99.90
22202;DHT22;11266;51.522;6.302;2023-05-07T01:36:25;15.10;99.90
22202;DHT22;11266;51.522;6.302;2023-05-07T01:37:13;15.10;99.90
22202;DHT22;11266;51.522;6.302;2023-05-07T01:38:00;15.10;99.90
22202;DHT22;11266;51.522;6.302;2023-05-07T01:38:47;15.10;99.90
22202;DHT22;11266;51.522;6.302;2023-05-07T01:39:33;15.10;99.90
22202;DHT22;11266;51.522;6.302;2023-05-07T01:40:19;15.10;99.90
22202;DHT22;11266;51.522;6.302;2023-05-07T01:41:06;15.10;99.90
22202;DHT22;11266;51.522;6.302;2023-05-07T01:41:56;15.10;99.90
22202;DHT22;11266;51.522;6.302;2023-05-07T01:42:44;15.10;99.90
22202;DHT22;11266;51.522;6.302;2023-05-07T01:43:31;15.10;99.90
22202;DHT22;11266;51.522;6.302;2023-05-07T01:44:18;15.10;99.90
22202;DHT22;11266;51.522;6.302;2023-05-07T01:45:04;15.10;99.90
22202;DHT22;11266;51.522;6.302;2023-05-07T01:45:51;15.10;99.90
22202;DHT22;11266;51.522;6.302;2023-05-07T01:46:38;15.10;99.90
22202;DHT22;11266;51.522;6.302;2023-05-07T01:47:25;15.10;99.90
22202;DHT22;11266;51.522;6.302;2023-05-07T01:48:11;15.10;99.90
22202;DHT22;11266;51.522;6.302;2023-05-07T01:48:58;15.10;99.90
22202;DHT22;11266;51.522;6.302;2023-05-07T01:49:45;15.10;99.90
22202;DHT22;11266;51.522;6.302;2023-05-07T01:50:32;15.10;99.90
22202;DHT22;11266;51.522;6.302;2023-05-07T01:51:17;15.10;99.90
22202;DHT22;11266;51.522;6.302;2023-05-07T01:52:05;15.10;99.90
22202;DHT22;11266;51.522;6.302;2023-05-07T01:52:52;15.10;99.90
22202;DHT22;11266;51.522;6.302;2023-05-07T01:53:39;15.10;99.90
22202;DHT22;11266;51.522;6.302;2023-05-07T01:54:26;15.10;99.90
22202;DHT22;11266;51.522;6.302;2023-05-07T01:55:16;15.10;99.90
22202;DHT22;11266;51.522;6.302;2023-05-07T01:56:02;15.10;99.90
22202;DHT22;11266;51.522;6.302;2023-05-07T01:56:48;15.10;99.90
22202;DHT22;11266;51.522;6.302;2023-05-07T01:57:35;15.10;99.90
22202;DHT22;11266;51.522;6.302;2023-05-07T01:58:24;15.10;99.90
22202;DHT22;11266;51.522;6.302;2023-05-07T01:59:10;15.00;99.90
22202;DHT22;11266;51.522;6.302;2023-05-07T01:59:56;15.10;99.90
22202;DHT22;11266;51.522;6.302;2023-05-07T02:00:42;15.00;99.90
22202;DHT22;11266;51.522;6.302;2023-05-07T02:01:28;15.00;99.90
22202;DHT22;11266;51.522;6.302;2023-05-07T02:02:14;15.00;99.90
22202;DHT22;11266;51.522;6.302;2023-05-07T02:03:00;15.00;99.90
22202;DHT22;11266;51.522;6.302;2023-05-07T02:03:46;15.00;99.90
22202;DHT22;11266;51.522;6.302;2023-05-07T02:04:32;15.00;99.90
22202;DHT22;11266;51.522;6.302;2023-05-07T02:05:18;15.00;99.90
22202;DHT22;11266;51.522;6.302;2023-05-07T02:06:04;15.00;99.90
22202;DHT22;11266;51.522;6.302;2023-05-07T02:06:53;15.00;99.90
22202;DHT22;11266;51.522;6.302;2023-05-07T02:07:39;15.00;99.90
22202;DHT22;11266;51.522;6.302;2023-05-07T02:08:25;15.00;99.90
22202;DHT22;11266;51.522;6.302;2023-05-07T02:09:13;15.00;99.90
22202;DHT22;11266;51.522;6.302;2023-05-07T02:10:00;15.00;99.90
22202;DHT22;11266;51.522;6.302;2023-05-07T02:10:46;15.00;99.90
22202;DHT22;11266;51.522;6.302;2023-05-07T02:11:32;15.00;99.90
22202;DHT22;11266;51.522;6.302;2023-05-07T02:12:18;15.00;99.90
22202;DHT22;11266;51.522;6.302;2023-05-07T02:13:06;15.00;99.90
22202;DHT22;11266;51.522;6.302;2023-05-07T02:13:52;15.00;99.90
22202;DHT22;11266;51.522;6.302;2023-05-07T02:14:38;14.90;99.90
22202;DHT22;11266;51.522;6.302;2023-05-07T02:15:24;14.90;99.90
22202;DHT22;11266;51.522;6.302;2023-05-07T02:16:10;15.00;99.90
22202;DHT22;11266;51.522;6.302;2023-05-07T02:16:56;14.90;99.90
22202;DHT22;11266;51.522;6.302;2023-05-07T02:18:03;14.90;99.90
22202;DHT22;11266;51.522;6.302;2023-05-07T02:18:49;14.90;99.90
22202;DHT22;11266;51.522;6.302;2023-05-07T02:19:35;14.90;99.90
22202;DHT22;11266;51.522;6.302;2023-05-07T02:20:21;14.90;99.90
22202;DHT22;11266;51.522;6.302;2023-05-07T02:21:06;14.90;99.90
22202;DHT22;11266;51.522;6.302;2023-05-07T02:21:52;14.90;99.90
22202;DHT22;11266;51.522;6.302;2023-05-07T02:22:38;14.90;99.90
22202;DHT22;11266;51.522;6.302;2023-05-07T02:23:26;14.80;99.90
22202;DHT22;11266;51.522;6.302;2023-05-07T02:24:15;14.80;99.90
22202;DHT22;11266;51.522;6.302;2023-05-07T02:25:01;14.80;99.90
22202;DHT22;11266;51.522;6.302;2023-05-07T02:25:47;14.80;99.90
22202;DHT22;11266;51.522;6.302;2023-05-07T02:26:32;14.80;99.90
22202;DHT22;11266;51.522;6.302;2023-05-07T02:27:19;14.80;99.90
22202;DHT22;11266;51.522;6.302;2023-05-07T02:28:05;14.80;99.90
22202;DHT22;11266;51.522;6.302;2023-05-07T02:28:51;14.80;99.90
22202;DHT22;11266;51.522;6.302;2023-05-07T02:29:37;14.90;99.90
22202;DHT22;11266;51.522;6.302;2023-05-07T02:30:24;14.80;99.90
22202;DHT22;11266;51.522;6.302;2023-05-07T02:31:10;14.80;99.90
22202;DHT22;11266;51.522;6.302;2023-05-07T02:31:56;14.80;99.90
22202;DHT22;11266;51.522;6.302;2023-05-07T02:32:42;14.80;99.90
22202;DHT22;11266;51.522;6.302;2023-05-07T02:33:31;14.80;99.90
22202;DHT22;11266;51.522;6.302;2023-05-07T02:34:17;14.80;99.90
22202;DHT22;11266;51.522;6.302;2023-05-07T02:35:04;14.80;99.90
22202;DHT22;11266;51.522;6.302;2023-05-07T02:35:50;14.80;99.90
22202;DHT22;11266;51.522;6.302;2023-05-07T02:36:37;14.80;99.90
22202;DHT22;11266;51.522;6.302;2023-05-07T02:37:29;14.80;99.90
22202;DHT22;11266;51.522;6.302;2023-05-07T02:38:15;14.80;99.90
22202;DHT22;11266;51.522;6.302;2023-05-07T02:39:00;14.80;99.90
22202;DHT22;11266;51.522;6.302;2023-05-07T02:39:48;14.80;99.90
22202;DHT22;11266;51.522;6.302;2023-05-07T02:40:33;14.70;99.90
22202;DHT22;11266;51.522;6.302;2023-05-07T02:41:19;14.80;99.90
22202;DHT22;11266;51.522;6.302;2023-05-07T02:42:06;14.80;99.90
22202;DHT22;11266;51.522;6.302;2023-05-07T02:42:52;14.80;99.90
22202;DHT22;11266;51.522;6.302;2023-05-07T02:43:37;14.70;99.90
22202;DHT22;11266;51.522;6.302;2023-05-07T02:44:23;14.70;99.90
22202;DHT22;11266;51.522;6.302;2023-05-07T02:45:09;14.70;99.90
22202;DHT22;11266;51.522;6.302;2023-05-07T02:46:07;14.70;99.90
22202;DHT22;11266;51.522;6.302;2023-05-07T02:46:53;14.70;99.90
22202;DHT22;11266;51.522;6.302;2023-05-07T02:47:39;14.70;99.90
22202;DHT22;11266;51.522;6.302;2023-05-07T02:48:24;14.70;99.90
22202;DHT22;11266;51.522;6.302;2023-05-07T02:49:10;14.70;99.90
22202;DHT22;11266;51.522;6.302;2023-05-07T02:49:56;14.70;99.90
22202;DHT22;11266;51.522;6.302;2023-05-07T02:50:42;14.70;99.90
22202;DHT22;11266;51.522;6.302;2023-05-07T02:51:29;14.70;99.90
22202;DHT22;11266;51.522;6.302;2023-05-07T02:52:15;14.70;99.90
22202;DHT22;11266;51.522;6.302;2023-05-07T02:53:01;14.70;99.90
22202;DHT22;11266;51.522;6.302;2023-05-07T02:53:47;14.70;99.90
22202;DHT22;11266;51.522;6.302;2023-05-07T02:54:33;14.70;99.90
22202;DHT22;11266;51.522;6.302;2023-05-07T02:55:19;14.70;99.90
22202;DHT22;11266;51.522;6.302;2023-05-07T02:56:05;14.70;99.90
22202;DHT22;11266;51.522;6.302;2023-05-07T02:56:51;14.70;99.90
22202;DHT22;11266;51.522;6.302;2023-05-07T02:57:37;14.70;99.90
22202;DHT22;11266;51.522;6.302;2023-05-07T02:58:23;14.70;99.90
22202;DHT22;11266;51.522;6.302;2023-05-07T02:59:09;14.70;99.90
22202;DHT22;11266;51.522;6.302;2023-05-07T02:59:57;14.70;99.90
22202;DHT22;11266;51.522;6.302;2023-05-07T03:00:43;14.70;99.90
22202;DHT22;11266;51.522;6.302;2023-05-07T03:01:29;14.70;99.90
22202;DHT22;11266;51.522;6.302;2023-05-07T03:02:14;14.70;99.90
22202;DHT22;11266;51.522;6.302;2023-05-07T03:03:00;14.70;99.90
22202;DHT22;11266;51.522;6.302;2023-05-07T03:03:46;14.70;99.90
22202;DHT22;11266;51.522;6.302;2023-05-07T03:04:32;14.60;99.90
22202;DHT22;11266;51.522;6.302;2023-05-07T03:05:18;14.60;99.90
22202;DHT22;11266;51.522;6.302;2023-05-07T03:06:03;14.60;99.90
22202;DHT22;11266;51.522;6.302;2023-05-07T03:06:49;14.60;99.90
22202;DHT22;11266;51.522;6.302;2023-05-07T03:07:36;14.60;99.90
22202;DHT22;11266;51.522;6.302;2023-05-07T03:08:21;14.60;99.90
22202;DHT22;11266;51.522;6.302;2023-05-07T03:09:07;14.60;99.90
22202;DHT22;11266;51.522;6.302;2023-05-07T03:09:54;14.60;99.90
22202;DHT22;11266;51.522;6.302;2023-05-07T03:10:40;14.60;99.90
22202;DHT22;11266;51.522;6.302;2023-05-07T03:11:25;14.60;99.90
22202;DHT22;11266;51.522;6.302;2023-05-07T03:12:11;14.60;99.90
22202;DHT22;11266;51.522;6.302;2023-05-07T03:12:57;14.60;99.90
22202;DHT22;11266;51.522;6.302;2023-05-07T03:13:43;14.60;99.90
22202;DHT22;11266;51.522;6.302;2023-05-07T03:14:32;14.60;99.90
22202;DHT22;11266;51.522;6.302;2023-05-07T03:15:17;14.70;99.90
22202;DHT22;11266;51.522;6.302;2023-05-07T03:16:03;14.60;99.90
22202;DHT22;11266;51.522;6.302;2023-05-07T03:16:49;14.60;99.90
22202;DHT22;11266;51.522;6.302;2023-05-07T03:17:35;14.70;99.90
22202;DHT22;11266;51.522;6.302;2023-05-07T03:18:21;14.70;99.90
22202;DHT22;11266;51.522;6.302;2023-05-07T03:19:07;14.70;99.90
22202;DHT22;11266;51.522;6.302;2023-05-07T03:19:53;14.70;99.90
22202;DHT22;11266;51.522;6.302;2023-05-07T03:20:39;14.60;99.90
22202;DHT22;11266;51.522;6.302;2023-05-07T03:21:25;14.60;99.90
22202;DHT22;11266;51.522;6.302;2023-05-07T03:22:11;14.70;99.90
22202;DHT22;11266;51.522;6.302;2023-05-07T03:22:57;14.70;99.90
22202;DHT22;11266;51.522;6.302;2023-05-07T03:23:43;14.70;99.90
22202;DHT22;11266;51.522;6.302;2023-05-07T03:24:29;14.70;99.90
22202;DHT22;11266;51.522;6.302;2023-05-07T03:25:16;14.70;99.90
22202;DHT22;11266;51.522;6.302;2023-05-07T03:26:02;14.70;99.90
22202;DHT22;11266;51.522;6.302;2023-05-07T03:26:48;14.70;99.90
22202;DHT22;11266;51.522;6.302;2023-05-07T03:27:34;14.70;99.90
22202;DHT22;11266;51.522;6.302;2023-05-07T03:28:20;14.70;99.90
22202;DHT22;11266;51.522;6.302;2023-05-07T03:29:05;14.70;99.90
22202;DHT22;11266;51.522;6.302;2023-05-07T03:29:51;14.70;99.90
22202;DHT22;11266;51.522;6.302;2023-05-07T03:30:37;14.70;99.90
22202;DHT22;11266;51.522;6.302;2023-05-07T03:31:23;14.70;99.90
22202;DHT22;11266;51.522;6.302;2023-05-07T03:32:09;14.70;99.90
22202;DHT22;11266;51.522;6.302;2023-05-07T03:32:54;14.60;99.90
22202;DHT22;11266;51.522;6.302;2023-05-07T03:33:53;14.60;99.90
22202;DHT22;11266;51.522;6.302;2023-05-07T03:34:40;14.60;99.90
22202;DHT22;11266;51.522;6.302;2023-05-07T03:35:26;14.60;99.90
22202;DHT22;11266;51.522;6.302;2023-05-07T03:36:12;14.60;99.90
22202;DHT22;11266;51.522;6.302;2023-05-07T03:36:58;14.60;99.90
22202;DHT22;11266;51.522;6.302;2023-05-07T03:37:44;14.60;99.90
22202;DHT22;11266;51.522;6.302;2023-05-07T03:38:29;14.60;99.90
22202;DHT22;11266;51.522;6.302;2023-05-07T03:39:15;14.50;99.90
22202;DHT22;11266;51.522;6.302;2023-05-07T03:40:01;14.60;99.90
22202;DHT22;11266;51.522;6.302;2023-05-07T03:40:47;14.50;99.90
22202;DHT22;11266;51.522;6.302;2023-05-07T03:41:36;14.50;99.90
22202;DHT22;11266;51.522;6.302;2023-05-07T03:42:22;14.50;99.90
22202;DHT22;11266;51.522;6.302;2023-05-07T03:43:08;14.50;99.90
22202;DHT22;11266;51.522;6.302;2023-05-07T03:43:54;14.50;99.90
22202;DHT22;11266;51.522;6.302;2023-05-07T03:44:40;14.50;99.90
22202;DHT22;11266;51.522;6.302;2023-05-07T03:45:26;14.50;99.90
22202;DHT22;11266;51.522;6.302;2023-05-07T03:46:12;14.50;99.90
22202;DHT22;11266;51.522;6.302;2023-05-07T03:46:58;14.50;99.90
22202;DHT22;11266;51.522;6.302;2023-05-07T03:47:44;14.50;99.90
22202;DHT22;11266;51.522;6.302;2023-05-07T03:48:30;14.50;99.90
22202;DHT22;11266;51.522;6.302;2023-05-07T03:49:16;14.50;99.90
22202;DHT22;11266;51.522;6.302;2023-05-07T03:50:01;14.50;99.90
22202;DHT22;11266;51.522;6.302;2023-05-07T03:50:47;14.50;99.90
22202;DHT22;11266;51.522;6.302;2023-05-07T03:51:33;14.50;99.90
22202;DHT22;11266;51.522;6.302;2023-05-07T03:52:19;14.50;99.90
22202;DHT22;11266;51.522;6.302;2023-05-07T03:53:09;14.50;99.90
22202;DHT22;11266;51.522;6.302;2023-05-07T03:53:55;14.50;99.90
22202;DHT22;11266;51.522;6.302;2023-05-07T03:54:42;14.50;99.90
22202;DHT22;11266;51.522;6.302;2023-05-07T03:55:28;14.50;99.90
22202;DHT22;11266;51.522;6.302;2023-05-07T03:56:15;14.50;99.90
22202;DHT22;11266;51.522;6.302;2023-05-07T03:57:00;14.50;99.90
22202;DHT22;11266;51.522;6.302;2023-05-07T03:57:47;14.50;99.90
22202;DHT22;11266;51.522;6.302;2023-05-07T03:58:32;14.50;99.90
22202;DHT22;11266;51.522;6.302;2023-05-07T03:59:19;14.50;99.90
22202;DHT22;11266;51.522;6.302;2023-05-07T04:00:05;14.50;99.90
22202;DHT22;11266;51.522;6.302;2023-05-07T04:00:52;14.50;99.90
22202;DHT22;11266;51.522;6.302;2023-05-07T04:01:37;14.40;99.90
22202;DHT22;11266;51.522;6.302;2023-05-07T04:02:23;14.50;99.90
22202;DHT22;11266;51.522;6.302;2023-05-07T04:03:09;14.40;99.90
22202;DHT22;11266;51.522;6.302;2023-05-07T04:03:55;14.40;99.90
22202;DHT22;11266;51.522;6.302;2023-05-07T04:04:41;14.40;99.90
22202;DHT22;11266;51.522;6.302;2023-05-07T04:05:27;14.40;99.90
22202;DHT22;11266;51.522;6.302;2023-05-07T04:06:13;14.40;99.90
22202;DHT22;11266;51.522;6.302;2023-05-07T04:06:58;14.40;99.90
22202;DHT22;11266;51.522;6.302;2023-05-07T04:07:48;14.40;99.90
22202;DHT22;11266;51.522;6.302;2023-05-07T04:08:34;14.40;99.90
22202;DHT22;11266;51.522;6.302;2023-05-07T04:09:20;14.40;99.90
22202;DHT22;11266;51.522;6.302;2023-05-07T04:10:06;14.40;99.90
22202;DHT22;11266;51.522;6.302;2023-05-07T04:10:58;14.40;99.90
22202;DHT22;11266;51.522;6.302;2023-05-07T04:11:44;14.40;99.90
22202;DHT22;11266;51.522;6.302;2023-05-07T04:12:30;14.40;99.90
22202;DHT22;11266;51.522;6.302;2023-05-07T04:13:15;14.30;99.90
22202;DHT22;11266;51.522;6.302;2023-05-07T04:14:01;14.30;99.90
22202;DHT22;11266;51.522;6.302;2023-05-07T04:14:47;14.30;99.90
22202;DHT22;11266;51.522;6.302;2023-05-07T04:15:33;14.30;99.90
22202;DHT22;11266;51.522;6.302;2023-05-07T04:16:19;14.30;99.90
22202;DHT22;11266;51.522;6.302;2023-05-07T04:17:05;14.30;99.90
22202;DHT22;11266;51.522;6.302;2023-05-07T04:17:52;14.30;99.90
22202;DHT22;11266;51.522;6.302;2023-05-07T04:18:38;14.30;99.90
22202;DHT22;11266;51.522;6.302;2023-05-07T04:19:24;14.30;99.90
22202;DHT22;11266;51.522;6.302;2023-05-07T04:20:13;14.30;99.90
22202;DHT22;11266;51.522;6.302;2023-05-07T04:20:59;14.30;99.90
22202;DHT22;11266;51.522;6.302;2023-05-07T04:21:45;14.30;99.90
22202;DHT22;11266;51.522;6.302;2023-05-07T04:22:31;14.30;99.90
22202;DHT22;11266;51.522;6.302;2023-05-07T04:23:17;14.30;99.90
22202;DHT22;11266;51.522;6.302;2023-05-07T04:24:03;14.30;99.90
22202;DHT22;11266;51.522;6.302;2023-05-07T04:24:49;14.30;99.90
22202;DHT22;11266;51.522;6.302;2023-05-07T04:25:35;14.30;99.90
22202;DHT22;11266;51.522;6.302;2023-05-07T04:26:21;14.30;99.90
22202;DHT22;11266;51.522;6.302;2023-05-07T04:27:07;14.30;99.90
22202;DHT22;11266;51.522;6.302;2023-05-07T04:27:53;14.30;99.90
22202;DHT22;11266;51.522;6.302;2023-05-07T04:28:39;14.30;99.90
22202;DHT22;11266;51.522;6.302;2023-05-07T04:29:25;14.30;99.90
22202;DHT22;11266;51.522;6.302;2023-05-07T04:30:12;14.30;99.90
22202;DHT22;11266;51.522;6.302;2023-05-07T04:30:58;14.30;99.90
22202;DHT22;11266;51.522;6.302;2023-05-07T04:31:44;14.30;99.90
22202;DHT22;11266;51.522;6.302;2023-05-07T04:32:30;14.30;99.90
22202;DHT22;11266;51.522;6.302;2023-05-07T04:33:16;14.40;99.90
22202;DHT22;11266;51.522;6.302;2023-05-07T04:34:02;14.40;99.90
22202;DHT22;11266;51.522;6.302;2023-05-07T04:34:48;14.40;99.90
22202;DHT22;11266;51.522;6.302;2023-05-07T04:35:35;14.40;99.90
22202;DHT22;11266;51.522;6.302;2023-05-07T04:36:21;14.40;99.90
22202;DHT22;11266;51.522;6.302;2023-05-07T04:37:06;14.40;99.90
22202;DHT22;11266;51.522;6.302;2023-05-07T04:37:52;14.40;99.90
22202;DHT22;11266;51.522;6.302;2023-05-07T04:38:38;14.40;99.90
22202;DHT22;11266;51.522;6.302;2023-05-07T04:39:24;14.40;99.90
22202;DHT22;11266;51.522;6.302;2023-05-07T04:40:10;14.40;99.90
22202;DHT22;11266;51.522;6.302;2023-05-07T04:40:55;14.40;99.90
22202;DHT22;11266;51.522;6.302;2023-05-07T04:41:42;14.40;99.90
22202;DHT22;11266;51.522;6.302;2023-05-07T04:42:28;14.40;99.90
22202;DHT22;11266;51.522;6.302;2023-05-07T04:43:14;14.40;99.90
22202;DHT22;11266;51.522;6.302;2023-05-07T04:43:59;14.40;99.90
22202;DHT22;11266;51.522;6.302;2023-05-07T04:44:45;14.40;99.90
22202;DHT22;11266;51.522;6.302;2023-05-07T04:45:31;14.40;99.90
22202;DHT22;11266;51.522;6.302;2023-05-07T04:46:17;14.40;99.90
22202;DHT22;11266;51.522;6.302;2023-05-07T04:47:03;14.40;99.90
22202;DHT22;11266;51.522;6.302;2023-05-07T04:47:48;14.50;99.90
22202;DHT22;11266;51.522;6.302;2023-05-07T04:48:34;14.50;99.90
22202;DHT22;11266;51.522;6.302;2023-05-07T04:49:20;14.50;99.90
22202;DHT22;11266;51.522;6.302;2023-05-07T04:50:09;14.50;99.90
22202;DHT22;11266;51.522;6.302;2023-05-07T04:50:54;14.40;99.90
22202;DHT22;11266;51.522;6.302;2023-05-07T04:51:40;14.50;99.90
22202;DHT22;11266;51.522;6.302;2023-05-07T04:52:28;14.50;99.90
22202;DHT22;11266;51.522;6.302;2023-05-07T04:53:14;14.50;99.90
22202;DHT22;11266;51.522;6.302;2023-05-07T04:54:00;14.50;99.90